sensor_id;sensor_type;location;lat;lon;timestamp;P1;durP1;ratioP1;P2;durP2;ratioP2
2966;SDS011;1493;51.496;7.210;2023-07-31T00:01:26;5.67;;;4.30;;
2966;SDS011;1493;51.496;7.210;2023-07-31T00:03:53;5.07;;;3.90;;
2966;SDS011;1493;51.496;7.210;2023-07-31T00:06:21;8.50;;;3.97;;
2966;SDS011;1493;51.496;7.210;2023-07-31T00:08:48;7.63;;;4.50;;
2966;SDS011;1493;51.496;7.210;2023-07-31T00:11:15;11.80;;;4.50;;
2966;SDS011;1493;51.496;7.210;2023-07-31T00:13:42;6.33;;;4.40;;
2966;SDS011;1493;51.496;7.210;2023-07-31T00:16:09;8.00;;;4.53;;
2966;SDS011;1493;51.496;7.210;2023-07-31T00:18:35;7.33;;;3.97;;
2966;SDS011;1493;51.496;7.210;2023-07-31T00:21:02;8.67;;;4.07;;
2966;SDS011;1493;51.496;7.210;2023-07-31T00:23:30;7.10;;;3.73;;
2966;SDS011;1493;51.496;7.210;2023-07-31T00:25:57;10.73;;;5.80;;
2966;SDS011;1493;51.496;7.210;2023-07-31T00:28:24;11.10;;;4.57;;
2966;SDS011;1493;51.496;7.210;2023-07-31T00:30:51;7.43;;;5.17;;
2966;SDS011;1493;51.496;7.210;2023-07-31T00:33:18;8.93;;;4.37;;
2966;SDS011;1493;51.496;7.210;2023-07-31T00:35:45;7.23;;;4.47;;
2966;SDS011;1493;51.496;7.210;2023-07-31T00:38:12;9.20;;;4.17;;
2966;SDS011;1493;51.496;7.210;2023-07-31T00:40:40;7.17;;;3.87;;
2966;SDS011;1493;51.496;7.210;2023-07-31T00:43:07;10.70;;;4.80;;
2966;SDS011;1493;51.496;7.210;2023-07-31T00:45:33;11.83;;;5.33;;
2966;SDS011;1493;51.496;7.210;2023-07-31T00:48:00;12.50;;;5.50;;
2966;SDS011;1493;51.496;7.210;2023-07-31T00:50:28;12.43;;;4.80;;
2966;SDS011;1493;51.496;7.210;2023-07-31T00:52:55;11.13;;;6.33;;
2966;SDS011;1493;51.496;7.210;2023-07-31T00:55:22;13.10;;;5.87;;
2966;SDS011;1493;51.496;7.210;2023-07-31T00:57:50;13.00;;;6.10;;
2966;SDS011;1493;51.496;7.210;2023-07-31T01:00:20;13.07;;;5.70;;
2966;SDS011;1493;51.496;7.210;2023-07-31T01:02:47;11.77;;;6.50;;
2966;SDS011;1493;51.496;7.210;2023-07-31T01:05:15;16.30;;;7.37;;
2966;SDS011;1493;51.496;7.210;2023-07-31T01:07:45;14.03;;;7.77;;
2966;SDS011;1493;51.496;7.210;2023-07-31T01:10:19;11.73;;;5.63;;
2966;SDS011;1493;51.496;7.210;2023-07-31T01:12:48;11.57;;;6.60;;
2966;SDS011;1493;51.496;7.210;2023-07-31T01:15:19;11.20;;;5.50;;
2966;SDS011;1493;51.496;7.210;2023-07-31T01:17:47;12.00;;;5.17;;
2966;SDS011;1493;51.496;7.210;2023-07-31T01:20:15;9.63;;;5.10;;
2966;SDS011;1493;51.496;7.210;2023-07-31T01:25:54;11.60;;;5.10;;
2966;SDS011;1493;51.496;7.210;2023-07-31T01:28:27;9.93;;;5.20;;
2966;SDS011;1493;51.496;7.210;2023-07-31T01:30:58;10.80;;;5.67;;
2966;SDS011;1493;51.496;7.210;2023-07-31T01:33:28;11.90;;;5.20;;
2966;SDS011;1493;51.496;7.210;2023-07-31T01:35:55;8.70;;;4.87;;
2966;SDS011;1493;51.496;7.210;2023-07-31T01:38:23;9.77;;;5.40;;
2966;SDS011;1493;51.496;7.210;2023-07-31T01:40:50;11.50;;;6.30;;
2966;SDS011;1493;51.496;7.210;2023-07-31T01:43:19;9.87;;;5.77;;
2966;SDS011;1493;51.496;7.210;2023-07-31T01:45:46;10.10;;;5.37;;
2966;SDS011;1493;51.496;7.210;2023-07-31T01:48:13;10.67;;;5.80;;
2966;SDS011;1493;51.496;7.210;2023-07-31T01:50:40;12.70;;;5.87;;
2966;SDS011;1493;51.496;7.210;2023-07-31T01:53:06;8.60;;;4.93;;
2966;SDS011;1493;51.496;7.210;2023-07-31T01:55:33;15.60;;;5.47;;
2966;SDS011;1493;51.496;7.210;2023-07-31T01:58:00;9.27;;;5.47;;
2966;SDS011;1493;51.496;7.210;2023-07-31T02:00:28;9.40;;;5.00;;
2966;SDS011;1493;51.496;7.210;2023-07-31T02:02:55;17.07;;;6.10;;
2966;SDS011;1493;51.496;7.210;2023-07-31T02:05:22;9.50;;;5.67;;
2966;SDS011;1493;51.496;7.210;2023-07-31T02:07:48;9.73;;;4.70;;
2966;SDS011;1493;51.496;7.210;2023-07-31T02:10:15;8.33;;;4.47;;
2966;SDS011;1493;51.496;7.210;2023-07-31T02:12:42;13.13;;;5.43;;
2966;SDS011;1493;51.496;7.210;2023-07-31T02:15:09;10.77;;;4.87;;
2966;SDS011;1493;51.496;7.210;2023-07-31T02:17:37;10.50;;;4.50;;
2966;SDS011;1493;51.496;7.210;2023-07-31T02:20:04;10.53;;;5.07;;
2966;SDS011;1493;51.496;7.210;2023-07-31T02:22:32;13.30;;;5.47;;
2966;SDS011;1493;51.496;7.210;2023-07-31T02:24:59;12.97;;;5.43;;
2966;SDS011;1493;51.496;7.210;2023-07-31T02:27:26;10.60;;;4.50;;
2966;SDS011;1493;51.496;7.210;2023-07-31T02:29:52;12.70;;;5.47;;
2966;SDS011;1493;51.496;7.210;2023-07-31T02:32:20;10.37;;;4.87;;
2966;SDS011;1493;51.496;7.210;2023-07-31T02:34:48;11.53;;;4.17;;
2966;SDS011;1493;51.496;7.210;2023-07-31T02:37:15;12.90;;;5.10;;
2966;SDS011;1493;51.496;7.210;2023-07-31T02:39:42;15.27;;;5.53;;
2966;SDS011;1493;51.496;7.210;2023-07-31T02:42:08;6.83;;;4.00;;
2966;SDS011;1493;51.496;7.210;2023-07-31T02:44:35;11.50;;;5.10;;
2966;SDS011;1493;51.496;7.210;2023-07-31T02:47:02;8.93;;;4.87;;
2966;SDS011;1493;51.496;7.210;2023-07-31T02:49:29;9.70;;;4.63;;
2966;SDS011;1493;51.496;7.210;2023-07-31T02:51:57;10.50;;;4.50;;
2966;SDS011;1493;51.496;7.210;2023-07-31T02:54:24;13.23;;;4.73;;
2966;SDS011;1493;51.496;7.210;2023-07-31T02:56:51;10.17;;;4.93;;
2966;SDS011;1493;51.496;7.210;2023-07-31T02:59:18;13.90;;;5.73;;
2966;SDS011;1493;51.496;7.210;2023-07-31T03:01:46;9.77;;;5.50;;
2966;SDS011;1493;51.496;7.210;2023-07-31T03:04:13;13.97;;;5.40;;
2966;SDS011;1493;51.496;7.210;2023-07-31T03:06:39;15.30;;;4.93;;
2966;SDS011;1493;51.496;7.210;2023-07-31T03:09:08;9.50;;;5.17;;
2966;SDS011;1493;51.496;7.210;2023-07-31T03:11:34;10.17;;;5.40;;
2966;SDS011;1493;51.496;7.210;2023-07-31T03:14:01;10.50;;;4.80;;
2966;SDS011;1493;51.496;7.210;2023-07-31T03:16:28;11.00;;;5.40;;
2966;SDS011;1493;51.496;7.210;2023-07-31T03:18:55;10.33;;;4.63;;
2966;SDS011;1493;51.496;7.210;2023-07-31T03:21:22;9.27;;;4.90;;
2966;SDS011;1493;51.496;7.210;2023-07-31T03:23:49;11.23;;;5.50;;
2966;SDS011;1493;51.496;7.210;2023-07-31T03:26:17;9.00;;;5.43;;
2966;SDS011;1493;51.496;7.210;2023-07-31T03:28:44;7.13;;;4.67;;
2966;SDS011;1493;51.496;7.210;2023-07-31T03:31:11;12.97;;;4.87;;
2966;SDS011;1493;51.496;7.210;2023-07-31T03:33:38;11.57;;;5.00;;
2966;SDS011;1493;51.496;7.210;2023-07-31T03:36:05;11.13;;;5.03;;
2966;SDS011;1493;51.496;7.210;2023-07-31T03:38:33;14.60;;;5.47;;
2966;SDS011;1493;51.496;7.210;2023-07-31T03:40:59;7.60;;;4.70;;
2966;SDS011;1493;51.496;7.210;2023-07-31T03:43:28;13.00;;;5.30;;
2966;SDS011;1493;51.496;7.210;2023-07-31T03:45:55;10.60;;;4.80;;
2966;SDS011;1493;51.496;7.210;2023-07-31T03:48:22;7.13;;;5.33;;
2966;SDS011;1493;51.496;7.210;2023-07-31T03:50:49;10.17;;;4.23;;
2966;SDS011;1493;51.496;7.210;2023-07-31T03:53:16;11.93;;;4.40;;
2966;SDS011;1493;51.496;7.210;2023-07-31T03:55:42;13.47;;;5.90;;
2966;SDS011;1493;51.496;7.210;2023-07-31T03:58:09;10.97;;;4.47;;
2966;SDS011;1493;51.496;7.210;2023-07-31T04:00:39;9.97;;;4.30;;
2966;SDS011;1493;51.496;7.210;2023-07-31T04:03:06;10.80;;;4.23;;
2966;SDS011;1493;51.496;7.210;2023-07-31T04:05:33;9.13;;;4.80;;
2966;SDS011;1493;51.496;7.210;2023-07-31T04:08:04;10.90;;;4.60;;
2966;SDS011;1493;51.496;7.210;2023-07-31T04:10:31;7.63;;;4.30;;
2966;SDS011;1493;51.496;7.210;2023-07-31T04:12:58;10.40;;;5.87;;
2966;SDS011;1493;51.496;7.210;2023-07-31T04:15:25;10.70;;;4.93;;
2966;SDS011;1493;51.496;7.210;2023-07-31T04:17:54;8.00;;;4.50;;
2966;SDS011;1493;51.496;7.210;2023-07-31T04:20:20;11.30;;;4.73;;
2966;SDS011;1493;51.496;7.210;2023-07-31T04:22:47;10.93;;;4.83;;
2966;SDS011;1493;51.496;7.210;2023-07-31T04:25:14;8.53;;;4.50;;
2966;SDS011;1493;51.496;7.210;2023-07-31T04:27:41;9.93;;;4.37;;
2966;SDS011;1493;51.496;7.210;2023-07-31T04:30:11;12.00;;;4.40;;
2966;SDS011;1493;51.496;7.210;2023-07-31T04:32:37;5.90;;;3.77;;
2966;SDS011;1493;51.496;7.210;2023-07-31T04:35:06;9.07;;;4.60;;
2966;SDS011;1493;51.496;7.210;2023-07-31T04:37:33;10.80;;;4.80;;
2966;SDS011;1493;51.496;7.210;2023-07-31T04:40:00;7.37;;;4.03;;
2966;SDS011;1493;51.496;7.210;2023-07-31T04:42:27;8.60;;;4.50;;
2966;SDS011;1493;51.496;7.210;2023-07-31T04:44:54;10.30;;;4.80;;
2966;SDS011;1493;51.496;7.210;2023-07-31T04:47:20;15.30;;;5.33;;
2966;SDS011;1493;51.496;7.210;2023-07-31T04:49:47;8.30;;;4.37;;
2966;SDS011;1493;51.496;7.210;2023-07-31T04:52:15;7.70;;;4.00;;
2966;SDS011;1493;51.496;7.210;2023-07-31T04:54:42;7.03;;;3.50;;
2966;SDS011;1493;51.496;7.210;2023-07-31T04:57:09;8.93;;;4.13;;
2966;SDS011;1493;51.496;7.210;2023-07-31T04:59:35;5.43;;;4.37;;
2966;SDS011;1493;51.496;7.210;2023-07-31T05:02:07;9.60;;;4.17;;
2966;SDS011;1493;51.496;7.210;2023-07-31T05:04:34;15.13;;;4.20;;
2966;SDS011;1493;51.496;7.210;2023-07-31T05:07:01;7.63;;;4.00;;
2966;SDS011;1493;51.496;7.210;2023-07-31T05:09:29;7.40;;;4.43;;
2966;SDS011;1493;51.496;7.210;2023-07-31T05:11:56;10.27;;;4.57;;
2966;SDS011;1493;51.496;7.210;2023-07-31T05:14:23;7.40;;;4.40;;
2966;SDS011;1493;51.496;7.210;2023-07-31T05:16:50;6.90;;;4.40;;
2966;SDS011;1493;51.496;7.210;2023-07-31T05:19:17;10.73;;;4.20;;
2966;SDS011;1493;51.496;7.210;2023-07-31T05:21:43;7.93;;;4.33;;
2966;SDS011;1493;51.496;7.210;2023-07-31T05:24:10;9.93;;;5.43;;
2966;SDS011;1493;51.496;7.210;2023-07-31T05:26:38;5.23;;;4.30;;
2966;SDS011;1493;51.496;7.210;2023-07-31T05:29:05;7.10;;;4.50;;
2966;SDS011;1493;51.496;7.210;2023-07-31T05:31:32;9.07;;;4.00;;
2966;SDS011;1493;51.496;7.210;2023-07-31T05:33:59;9.50;;;4.23;;
2966;SDS011;1493;51.496;7.210;2023-07-31T05:36:26;10.67;;;5.03;;
2966;SDS011;1493;51.496;7.210;2023-07-31T05:38:53;8.67;;;4.77;;
2966;SDS011;1493;51.496;7.210;2023-07-31T05:41:20;9.43;;;4.80;;
2966;SDS011;1493;51.496;7.210;2023-07-31T05:43:48;7.17;;;4.20;;
2966;SDS011;1493;51.496;7.210;2023-07-31T05:46:16;11.70;;;4.97;;
2966;SDS011;1493;51.496;7.210;2023-07-31T05:48:43;8.00;;;3.77;;
2966;SDS011;1493;51.496;7.210;2023-07-31T05:51:10;9.60;;;4.17;;
2966;SDS011;1493;51.496;7.210;2023-07-31T05:53:37;6.33;;;3.80;;
2966;SDS011;1493;51.496;7.210;2023-07-31T05:56:05;12.33;;;6.07;;
2966;SDS011;1493;51.496;7.210;2023-07-31T05:58:32;10.20;;;4.50;;
2966;SDS011;1493;51.496;7.210;2023-07-31T06:01:01;8.20;;;4.70;;
2966;SDS011;1493;51.496;7.210;2023-07-31T06:03:27;7.70;;;4.97;;
2966;SDS011;1493;51.496;7.210;2023-07-31T06:05:55;7.30;;;5.60;;
2966;SDS011;1493;51.496;7.210;2023-07-31T06:08:22;8.20;;;4.43;;
2966;SDS011;1493;51.496;7.210;2023-07-31T06:10:49;7.00;;;4.77;;
2966;SDS011;1493;51.496;7.210;2023-07-31T06:13:16;8.27;;;4.77;;
2966;SDS011;1493;51.496;7.210;2023-07-31T06:15:42;8.27;;;4.80;;
2966;SDS011;1493;51.496;7.210;2023-07-31T06:18:11;8.87;;;5.40;;
2966;SDS011;1493;51.496;7.210;2023-07-31T06:20:37;7.77;;;4.83;;
2966;SDS011;1493;51.496;7.210;2023-07-31T06:23:05;7.53;;;4.73;;
2966;SDS011;1493;51.496;7.210;2023-07-31T06:25:32;5.97;;;4.27;;
2966;SDS011;1493;51.496;7.210;2023-07-31T06:27:59;8.80;;;4.67;;
2966;SDS011;1493;51.496;7.210;2023-07-31T06:30:26;6.43;;;4.50;;
2966;SDS011;1493;51.496;7.210;2023-07-31T06:32:53;6.33;;;4.03;;
2966;SDS011;1493;51.496;7.210;2023-07-31T06:35:21;13.90;;;6.10;;
2966;SDS011;1493;51.496;7.210;2023-07-31T06:37:48;6.47;;;5.30;;
2966;SDS011;1493;51.496;7.210;2023-07-31T06:40:16;6.17;;;4.73;;
2966;SDS011;1493;51.496;7.210;2023-07-31T06:42:43;7.63;;;4.80;;
2966;SDS011;1493;51.496;7.210;2023-07-31T06:45:12;7.63;;;4.80;;
2966;SDS011;1493;51.496;7.210;2023-07-31T06:47:39;9.93;;;4.60;;
2966;SDS011;1493;51.496;7.210;2023-07-31T06:50:06;6.67;;;4.40;;
2966;SDS011;1493;51.496;7.210;2023-07-31T06:52:35;7.20;;;4.00;;
2966;SDS011;1493;51.496;7.210;2023-07-31T06:55:02;8.27;;;4.47;;
2966;SDS011;1493;51.496;7.210;2023-07-31T06:57:30;7.00;;;5.40;;
2966;SDS011;1493;51.496;7.210;2023-07-31T06:59:57;8.80;;;5.33;;
2966;SDS011;1493;51.496;7.210;2023-07-31T07:02:25;7.30;;;4.40;;
2966;SDS011;1493;51.496;7.210;2023-07-31T07:04:51;9.97;;;5.90;;
2966;SDS011;1493;51.496;7.210;2023-07-31T07:07:18;7.70;;;4.40;;
2966;SDS011;1493;51.496;7.210;2023-07-31T07:09:46;5.57;;;4.23;;
2966;SDS011;1493;51.496;7.210;2023-07-31T07:12:13;6.50;;;4.20;;
2966;SDS011;1493;51.496;7.210;2023-07-31T07:14:40;6.97;;;4.83;;
2966;SDS011;1493;51.496;7.210;2023-07-31T07:17:07;6.97;;;4.03;;
2966;SDS011;1493;51.496;7.210;2023-07-31T07:19:34;11.13;;;4.80;;
2966;SDS011;1493;51.496;7.210;2023-07-31T07:22:00;7.07;;;4.37;;
2966;SDS011;1493;51.496;7.210;2023-07-31T07:24:27;9.03;;;5.20;;
2966;SDS011;1493;51.496;7.210;2023-07-31T07:26:56;8.33;;;5.10;;
2966;SDS011;1493;51.496;7.210;2023-07-31T07:29:22;6.87;;;4.03;;
2966;SDS011;1493;51.496;7.210;2023-07-31T07:31:49;6.50;;;3.77;;
2966;SDS011;1493;51.496;7.210;2023-07-31T07:34:16;7.07;;;4.43;;
2966;SDS011;1493;51.496;7.210;2023-07-31T07:36:43;6.20;;;4.30;;
2966;SDS011;1493;51.496;7.210;2023-07-31T07:39:10;9.63;;;4.70;;
2966;SDS011;1493;51.496;7.210;2023-07-31T07:41:37;5.83;;;4.50;;
2966;SDS011;1493;51.496;7.210;2023-07-31T07:44:05;7.00;;;4.40;;
2966;SDS011;1493;51.496;7.210;2023-07-31T07:46:32;7.43;;;3.80;;
2966;SDS011;1493;51.496;7.210;2023-07-31T07:48:59;6.30;;;4.33;;
2966;SDS011;1493;51.496;7.210;2023-07-31T07:51:26;8.40;;;4.53;;
2966;SDS011;1493;51.496;7.210;2023-07-31T07:53:55;9.70;;;5.00;;
2966;SDS011;1493;51.496;7.210;2023-07-31T07:56:21;7.63;;;4.30;;
2966;SDS011;1493;51.496;7.210;2023-07-31T07:58:49;7.73;;;4.10;;
2966;SDS011;1493;51.496;7.210;2023-07-31T08:01:17;5.73;;;4.20;;
2966;SDS011;1493;51.496;7.210;2023-07-31T08:03:44;9.00;;;4.70;;
2966;SDS011;1493;51.496;7.210;2023-07-31T08:06:10;6.80;;;4.23;;
2966;SDS011;1493;51.496;7.210;2023-07-31T08:08:38;6.20;;;4.23;;
2966;SDS011;1493;51.496;7.210;2023-07-31T08:11:05;5.30;;;4.23;;
2966;SDS011;1493;51.496;7.210;2023-07-31T08:13:32;8.17;;;5.00;;
2966;SDS011;1493;51.496;7.210;2023-07-31T08:15:59;7.50;;;4.40;;
2966;SDS011;1493;51.496;7.210;2023-07-31T08:18:27;8.50;;;4.47;;
2966;SDS011;1493;51.496;7.210;2023-07-31T08:20:54;7.97;;;4.07;;
2966;SDS011;1493;51.496;7.210;2023-07-31T08:23:21;7.30;;;4.60;;
2966;SDS011;1493;51.496;7.210;2023-07-31T08:25:48;8.13;;;4.40;;
2966;SDS011;1493;51.496;7.210;2023-07-31T08:28:15;15.00;;;4.47;;
2966;SDS011;1493;51.496;7.210;2023-07-31T08:30:42;9.40;;;3.90;;
2966;SDS011;1493;51.496;7.210;2023-07-31T08:33:09;5.67;;;3.50;;
2966;SDS011;1493;51.496;7.210;2023-07-31T08:35:37;4.57;;;3.17;;
2966;SDS011;1493;51.496;7.210;2023-07-31T08:38:04;5.17;;;2.93;;
2966;SDS011;1493;51.496;7.210;2023-07-31T08:40:31;4.83;;;3.70;;
2966;SDS011;1493;51.496;7.210;2023-07-31T08:42:58;4.00;;;2.80;;
2966;SDS011;1493;51.496;7.210;2023-07-31T08:45:27;9.20;;;3.33;;
2966;SDS011;1493;51.496;7.210;2023-07-31T08:47:55;4.90;;;2.67;;
2966;SDS011;1493;51.496;7.210;2023-07-31T08:50:22;4.57;;;3.40;;
2966;SDS011;1493;51.496;7.210;2023-07-31T08:52:51;4.20;;;3.33;;
2966;SDS011;1493;51.496;7.210;2023-07-31T08:55:18;5.60;;;3.07;;
2966;SDS011;1493;51.496;7.210;2023-07-31T08:57:48;4.20;;;3.27;;
2966;SDS011;1493;51.496;7.210;2023-07-31T09:00:17;4.50;;;3.43;;
2966;SDS011;1493;51.496;7.210;2023-07-31T09:02:51;5.57;;;2.80;;
2966;SDS011;1493;51.496;7.210;2023-07-31T09:05:22;4.67;;;3.03;;
2966;SDS011;1493;51.496;7.210;2023-07-31T09:07:51;5.53;;;3.30;;
2966;SDS011;1493;51.496;7.210;2023-07-31T09:10:18;5.17;;;3.37;;
2966;SDS011;1493;51.496;7.210;2023-07-31T09:12:44;4.40;;;3.40;;
2966;SDS011;1493;51.496;7.210;2023-07-31T09:15:12;4.00;;;3.07;;
2966;SDS011;1493;51.496;7.210;2023-07-31T09:17:39;5.60;;;3.10;;
2966;SDS011;1493;51.496;7.210;2023-07-31T09:20:12;5.20;;;3.10;;
2966;SDS011;1493;51.496;7.210;2023-07-31T09:22:41;3.73;;;2.50;;
2966;SDS011;1493;51.496;7.210;2023-07-31T09:25:16;6.40;;;2.97;;
2966;SDS011;1493;51.496;7.210;2023-07-31T09:27:48;4.23;;;2.63;;
2966;SDS011;1493;51.496;7.210;2023-07-31T09:30:15;7.90;;;3.70;;
2966;SDS011;1493;51.496;7.210;2023-07-31T09:32:43;6.50;;;2.97;;
2966;SDS011;1493;51.496;7.210;2023-07-31T09:35:16;8.10;;;2.93;;
2966;SDS011;1493;51.496;7.210;2023-07-31T09:37:49;4.07;;;3.10;;
2966;SDS011;1493;51.496;7.210;2023-07-31T09:43:04;4.07;;;3.20;;
2966;SDS011;1493;51.496;7.210;2023-07-31T09:45:33;3.83;;;2.83;;
2966;SDS011;1493;51.496;7.210;2023-07-31T09:48:01;8.23;;;2.57;;
2966;SDS011;1493;51.496;7.210;2023-07-31T09:50:29;5.03;;;2.70;;
2966;SDS011;1493;51.496;7.210;2023-07-31T09:52:56;4.90;;;3.10;;
2966;SDS011;1493;51.496;7.210;2023-07-31T09:55:23;3.60;;;3.07;;
2966;SDS011;1493;51.496;7.210;2023-07-31T09:57:52;4.00;;;2.77;;
2966;SDS011;1493;51.496;7.210;2023-07-31T10:00:23;3.40;;;2.43;;
2966;SDS011;1493;51.496;7.210;2023-07-31T10:02:52;3.07;;;2.30;;
2966;SDS011;1493;51.496;7.210;2023-07-31T10:05:19;6.57;;;2.80;;
2966;SDS011;1493;51.496;7.210;2023-07-31T10:07:49;4.50;;;2.40;;
2966;SDS011;1493;51.496;7.210;2023-07-31T10:10:19;4.27;;;2.70;;
2966;SDS011;1493;51.496;7.210;2023-07-31T10:12:46;3.57;;;2.80;;
2966;SDS011;1493;51.496;7.210;2023-07-31T10:15:16;4.10;;;2.30;;
2966;SDS011;1493;51.496;7.210;2023-07-31T10:17:43;4.97;;;3.00;;
2966;SDS011;1493;51.496;7.210;2023-07-31T10:20:12;2.60;;;2.37;;
2966;SDS011;1493;51.496;7.210;2023-07-31T10:22:41;4.30;;;2.23;;
2966;SDS011;1493;51.496;7.210;2023-07-31T10:25:09;4.23;;;2.23;;
2966;SDS011;1493;51.496;7.210;2023-07-31T10:27:36;3.97;;;2.60;;
2966;SDS011;1493;51.496;7.210;2023-07-31T10:30:05;3.47;;;2.37;;
2966;SDS011;1493;51.496;7.210;2023-07-31T10:32:36;3.30;;;2.50;;
2966;SDS011;1493;51.496;7.210;2023-07-31T10:35:05;3.73;;;2.33;;
2966;SDS011;1493;51.496;7.210;2023-07-31T10:37:35;3.10;;;2.00;;
2966;SDS011;1493;51.496;7.210;2023-07-31T10:40:03;2.60;;;1.80;;
2966;SDS011;1493;51.496;7.210;2023-07-31T10:42:32;3.50;;;2.60;;
2966;SDS011;1493;51.496;7.210;2023-07-31T10:45:01;2.80;;;2.10;;
2966;SDS011;1493;51.496;7.210;2023-07-31T10:47:29;2.60;;;1.80;;
2966;SDS011;1493;51.496;7.210;2023-07-31T10:50:16;4.53;;;2.70;;
2966;SDS011;1493;51.496;7.210;2023-07-31T10:52:46;6.17;;;2.90;;
2966;SDS011;1493;51.496;7.210;2023-07-31T10:55:24;3.47;;;2.60;;
2966;SDS011;1493;51.496;7.210;2023-07-31T10:57:53;2.80;;;2.20;;
2966;SDS011;1493;51.496;7.210;2023-07-31T11:00:25;3.20;;;2.30;;
2966;SDS011;1493;51.496;7.210;2023-07-31T11:02:56;4.67;;;2.60;;
2966;SDS011;1493;51.496;7.210;2023-07-31T11:08:14;6.60;;;3.80;;
2966;SDS011;1493;51.496;7.210;2023-07-31T11:10:42;5.20;;;3.70;;
2966;SDS011;1493;51.496;7.210;2023-07-31T11:13:09;5.60;;;3.70;;
2966;SDS011;1493;51.496;7.210;2023-07-31T11:15:36;4.47;;;3.33;;
2966;SDS011;1493;51.496;7.210;2023-07-31T11:18:03;5.03;;;4.23;;
2966;SDS011;1493;51.496;7.210;2023-07-31T11:20:33;8.30;;;3.80;;
2966;SDS011;1493;51.496;7.210;2023-07-31T11:23:02;5.10;;;4.07;;
2966;SDS011;1493;51.496;7.210;2023-07-31T11:25:31;5.63;;;3.80;;
2966;SDS011;1493;51.496;7.210;2023-07-31T11:28:01;7.80;;;3.70;;
2966;SDS011;1493;51.496;7.210;2023-07-31T11:30:29;4.37;;;3.70;;
2966;SDS011;1493;51.496;7.210;2023-07-31T11:32:56;4.90;;;3.83;;
2966;SDS011;1493;51.496;7.210;2023-07-31T11:35:23;5.53;;;3.60;;
2966;SDS011;1493;51.496;7.210;2023-07-31T11:37:50;5.60;;;3.57;;
2966;SDS011;1493;51.496;7.210;2023-07-31T11:40:18;4.30;;;3.90;;
2966;SDS011;1493;51.496;7.210;2023-07-31T11:42:46;6.43;;;4.13;;
2966;SDS011;1493;51.496;7.210;2023-07-31T11:45:12;6.20;;;3.43;;
2966;SDS011;1493;51.496;7.210;2023-07-31T11:47:39;5.43;;;3.10;;
2966;SDS011;1493;51.496;7.210;2023-07-31T11:50:07;3.77;;;2.93;;
2966;SDS011;1493;51.496;7.210;2023-07-31T11:52:38;7.70;;;3.60;;
2966;SDS011;1493;51.496;7.210;2023-07-31T11:55:08;5.23;;;3.30;;
2966;SDS011;1493;51.496;7.210;2023-07-31T11:57:37;5.50;;;3.20;;
2966;SDS011;1493;51.496;7.210;2023-07-31T12:00:06;6.03;;;3.00;;
2966;SDS011;1493;51.496;7.210;2023-07-31T12:02:36;4.77;;;3.00;;
2966;SDS011;1493;51.496;7.210;2023-07-31T12:05:04;4.20;;;2.50;;
2966;SDS011;1493;51.496;7.210;2023-07-31T12:10:28;3.80;;;3.10;;
2966;SDS011;1493;51.496;7.210;2023-07-31T12:13:01;5.93;;;3.40;;
2966;SDS011;1493;51.496;7.210;2023-07-31T12:15:31;4.90;;;3.53;;
2966;SDS011;1493;51.496;7.210;2023-07-31T12:17:59;3.50;;;3.20;;
2966;SDS011;1493;51.496;7.210;2023-07-31T12:20:26;4.23;;;3.30;;
2966;SDS011;1493;51.496;7.210;2023-07-31T12:22:55;4.17;;;2.30;;
2966;SDS011;1493;51.496;7.210;2023-07-31T12:25:28;4.17;;;2.63;;
2966;SDS011;1493;51.496;7.210;2023-07-31T12:27:55;6.60;;;3.00;;
2966;SDS011;1493;51.496;7.210;2023-07-31T12:30:31;4.97;;;2.60;;
2966;SDS011;1493;51.496;7.210;2023-07-31T12:33:02;4.23;;;2.60;;
2966;SDS011;1493;51.496;7.210;2023-07-31T12:35:34;2.60;;;2.20;;
2966;SDS011;1493;51.496;7.210;2023-07-31T12:38:02;3.90;;;2.37;;
2966;SDS011;1493;51.496;7.210;2023-07-31T12:40:29;5.07;;;3.07;;
2966;SDS011;1493;51.496;7.210;2023-07-31T12:42:56;3.40;;;2.63;;
2966;SDS011;1493;51.496;7.210;2023-07-31T12:45:23;3.23;;;2.70;;
2966;SDS011;1493;51.496;7.210;2023-07-31T12:47:51;3.57;;;2.40;;
2966;SDS011;1493;51.496;7.210;2023-07-31T12:50:18;3.47;;;2.43;;
2966;SDS011;1493;51.496;7.210;2023-07-31T12:52:45;2.90;;;2.60;;
2966;SDS011;1493;51.496;7.210;2023-07-31T12:55:11;3.87;;;2.40;;
2966;SDS011;1493;51.496;7.210;2023-07-31T12:57:39;4.27;;;2.83;;
2966;SDS011;1493;51.496;7.210;2023-07-31T13:00:07;3.70;;;2.70;;
2966;SDS011;1493;51.496;7.210;2023-07-31T13:02:35;3.80;;;1.93;;
2966;SDS011;1493;51.496;7.210;2023-07-31T13:05:03;4.50;;;2.70;;
2966;SDS011;1493;51.496;7.210;2023-07-31T13:07:30;3.80;;;2.27;;
2966;SDS011;1493;51.496;7.210;2023-07-31T13:09:57;6.90;;;2.50;;
2966;SDS011;1493;51.496;7.210;2023-07-31T13:12:24;4.80;;;2.10;;
2966;SDS011;1493;51.496;7.210;2023-07-31T13:14:51;3.30;;;2.40;;
2966;SDS011;1493;51.496;7.210;2023-07-31T13:17:17;4.80;;;2.03;;
2966;SDS011;1493;51.496;7.210;2023-07-31T13:19:44;3.20;;;2.43;;
2966;SDS011;1493;51.496;7.210;2023-07-31T13:22:13;3.60;;;2.03;;
2966;SDS011;1493;51.496;7.210;2023-07-31T13:24:40;3.37;;;2.43;;
2966;SDS011;1493;51.496;7.210;2023-07-31T13:27:06;2.80;;;2.17;;
2966;SDS011;1493;51.496;7.210;2023-07-31T13:29:33;2.17;;;1.83;;
2966;SDS011;1493;51.496;7.210;2023-07-31T13:32:00;2.97;;;1.80;;
2966;SDS011;1493;51.496;7.210;2023-07-31T13:34:27;2.67;;;2.00;;
2966;SDS011;1493;51.496;7.210;2023-07-31T13:36:54;2.33;;;1.90;;
2966;SDS011;1493;51.496;7.210;2023-07-31T13:39:22;2.23;;;1.97;;
2966;SDS011;1493;51.496;7.210;2023-07-31T13:41:49;2.60;;;2.00;;
2966;SDS011;1493;51.496;7.210;2023-07-31T13:44:16;3.33;;;2.00;;
2966;SDS011;1493;51.496;7.210;2023-07-31T13:46:43;3.37;;;2.53;;
2966;SDS011;1493;51.496;7.210;2023-07-31T13:49:09;5.33;;;2.33;;
2966;SDS011;1493;51.496;7.210;2023-07-31T13:51:36;3.10;;;2.20;;
2966;SDS011;1493;51.496;7.210;2023-07-31T13:54:04;3.67;;;1.83;;
2966;SDS011;1493;51.496;7.210;2023-07-31T13:56:33;3.70;;;2.60;;
2966;SDS011;1493;51.496;7.210;2023-07-31T13:59:00;2.50;;;2.30;;
2966;SDS011;1493;51.496;7.210;2023-07-31T14:01:27;3.33;;;2.43;;
2966;SDS011;1493;51.496;7.210;2023-07-31T14:03:54;3.40;;;2.20;;
2966;SDS011;1493;51.496;7.210;2023-07-31T14:06:20;3.03;;;2.10;;
2966;SDS011;1493;51.496;7.210;2023-07-31T14:08:48;3.40;;;2.70;;
2966;SDS011;1493;51.496;7.210;2023-07-31T14:11:14;3.37;;;2.70;;
2966;SDS011;1493;51.496;7.210;2023-07-31T14:13:43;3.10;;;2.33;;
2966;SDS011;1493;51.496;7.210;2023-07-31T14:16:09;3.20;;;2.73;;
2966;SDS011;1493;51.496;7.210;2023-07-31T14:18:36;3.97;;;2.20;;
2966;SDS011;1493;51.496;7.210;2023-07-31T14:21:03;4.10;;;2.87;;
2966;SDS011;1493;51.496;7.210;2023-07-31T14:23:30;4.27;;;2.67;;
2966;SDS011;1493;51.496;7.210;2023-07-31T14:25:57;3.83;;;3.00;;
2966;SDS011;1493;51.496;7.210;2023-07-31T14:28:23;5.00;;;3.70;;
2966;SDS011;1493;51.496;7.210;2023-07-31T14:30:51;3.73;;;2.77;;
2966;SDS011;1493;51.496;7.210;2023-07-31T14:33:18;4.40;;;2.93;;
2966;SDS011;1493;51.496;7.210;2023-07-31T14:35:45;4.33;;;3.10;;
2966;SDS011;1493;51.496;7.210;2023-07-31T14:38:12;4.57;;;2.53;;
2966;SDS011;1493;51.496;7.210;2023-07-31T14:40:39;8.60;;;3.40;;
2966;SDS011;1493;51.496;7.210;2023-07-31T14:43:06;3.90;;;2.80;;
2966;SDS011;1493;51.496;7.210;2023-07-31T14:45:32;3.60;;;2.83;;
2966;SDS011;1493;51.496;7.210;2023-07-31T14:48:01;5.33;;;3.40;;
2966;SDS011;1493;51.496;7.210;2023-07-31T14:50:27;5.63;;;2.80;;
2966;SDS011;1493;51.496;7.210;2023-07-31T14:52:54;5.30;;;3.70;;
2966;SDS011;1493;51.496;7.210;2023-07-31T14:55:21;3.97;;;2.70;;
2966;SDS011;1493;51.496;7.210;2023-07-31T14:57:48;6.33;;;3.37;;
2966;SDS011;1493;51.496;7.210;2023-07-31T15:00:15;5.60;;;3.67;;
2966;SDS011;1493;51.496;7.210;2023-07-31T15:02:42;3.70;;;2.73;;
2966;SDS011;1493;51.496;7.210;2023-07-31T15:05:10;4.27;;;2.97;;
2966;SDS011;1493;51.496;7.210;2023-07-31T15:07:37;4.70;;;3.10;;
2966;SDS011;1493;51.496;7.210;2023-07-31T15:10:04;7.87;;;3.73;;
2966;SDS011;1493;51.496;7.210;2023-07-31T15:12:32;4.50;;;2.90;;
2966;SDS011;1493;51.496;7.210;2023-07-31T15:14:58;5.70;;;3.23;;
2966;SDS011;1493;51.496;7.210;2023-07-31T15:17:25;4.10;;;2.90;;
2966;SDS011;1493;51.496;7.210;2023-07-31T15:19:53;4.60;;;2.93;;
2966;SDS011;1493;51.496;7.210;2023-07-31T15:22:21;6.03;;;3.33;;
2966;SDS011;1493;51.496;7.210;2023-07-31T15:24:50;4.60;;;3.30;;
2966;SDS011;1493;51.496;7.210;2023-07-31T15:27:18;5.40;;;3.67;;